Time;durP1;ratioP1;P1;durP2;ratioP2;P2;SDS_P1;SDS_P2;PMS_P1;PMS_P2;Temp;Humidity;BMP_temperature;BMP_pressure;BME280_temperature;BME280_humidity;BME280_pressure;Samples;Min_cycle;Max_cycle;Signal;HPM_P1;HPM_P2
2021/10/15 00:00:35;;;;;;;26.70;18.50;;;;;;;3.61;83.25;98074.50;116119;1182;60360;-67
2021/10/15 00:03:05;;;;;;;;;;;;;;;3.57;83.46;98071.36;116009;1184;72442;-65
2021/10/15 00:05:34;;;;;;;23.90;16.70;;;;;;;3.53;83.49;98070.44;116051;1182;67643;-67
2021/10/15 00:08:04;;;;;;;;;;;;;;;3.50;83.65;98067.27;115930;1182;70541;-64
2021/10/15 00:10:34;;;;;;;19.50;13.40;;;;;;;3.49;83.85;98065.41;116112;1182;60381;-65
2021/10/15 00:13:04;;;;;;;28.20;18.20;;;;;;;3.53;83.98;98068.23;116174;1184;60366;-68
2021/10/15 00:15:35;;;;;;;22.60;15.90;;;;;;;3.57;84.17;98068.41;116147;1182;72176;-68
2021/10/15 00:18:05;;;;;;;21.10;15.30;;;;;;;3.62;84.03;98071.20;116125;1182;68791;-68
2021/10/15 00:20:35;;;;;;;;;;;;;;;3.67;83.95;98071.20;116041;1182;68253;-62
2021/10/15 00:23:05;;;;;;;19.30;14.10;;;;;;;3.69;83.91;98062.66;115927;1184;60454;-63
2021/10/15 00:25:35;;;;;;;17.50;12.00;;;;;;;3.71;83.87;98059.33;116132;1183;60778;-67
2021/10/15 00:28:06;;;;;;;23.60;16.90;;;;;;;3.72;83.93;98058.09;116071;1183;71215;-68
2021/10/15 00:30:36;;;;;;;20.10;13.70;;;;;;;3.70;84.20;98056.45;116039;1183;68282;-63
2021/10/15 00:33:06;;;;;;;;;;;;;;;3.69;84.18;98052.85;116049;1184;69108;-64
2021/10/15 00:35:36;;;;;;;22.60;15.50;;;;;;;3.67;84.52;98055.15;116036;1184;60350;-64
2021/10/15 00:38:06;;;;;;;23.00;14.90;;;;;;;3.69;84.39;98049.92;116127;1183;60363;-65
2021/10/15 00:40:36;;;;;;;;;;;;;;;3.69;84.35;98040.95;116114;1183;71466;-64
2021/10/15 00:43:06;;;;;;;24.20;17.50;;;;;;;3.68;84.29;98033.91;116096;1184;68532;-66
2021/10/15 00:45:36;;;;;;;24.40;17.20;;;;;;;3.66;84.52;98033.98;116107;1182;68314;-65
2021/10/15 00:48:06;;;;;;;24.70;16.40;;;;;;;3.67;83.83;98033.95;116084;1183;60308;-65
2021/10/15 00:50:36;;;;;;;16.50;11.40;;;;;;;3.68;82.58;98037.34;115993;1183;60360;-68
2021/10/15 00:53:06;;;;;;;25.70;18.00;;;;;;;3.70;82.55;98046.58;116058;1183;71549;-63
2021/10/15 00:55:37;;;;;;;28.40;19.50;;;;;;;3.70;83.74;98049.71;115971;1184;67533;-63
2021/10/15 00:58:07;;;;;;;21.00;14.30;;;;;;;3.67;84.08;98050.48;116059;1183;69066;-68
2021/10/15 01:00:36;;;;;;;25.80;17.90;;;;;;;3.68;83.39;98045.79;116026;1183;60370;-63
2021/10/15 01:03:08;;;;;;;23.50;17.10;;;;;;;3.69;83.57;98046.30;116002;1184;60366;-62
2021/10/15 01:05:38;;;;;;;16.90;11.30;;;;;;;3.70;83.11;98047.81;116031;1184;72226;-64
2021/10/15 01:08:08;;;;;;;;;;;;;;;3.72;82.29;98047.23;116080;1184;67935;-65
2021/10/15 01:10:38;;;;;;;15.30;10.70;;;;;;;3.75;81.50;98050.58;116004;1184;68501;-66
2021/10/15 01:13:08;;;;;;;14.10;9.60;;;;;;;3.76;81.53;98049.68;116056;1184;60382;-65
2021/10/15 01:15:39;;;;;;;11.20;7.60;;;;;;;3.77;81.18;98043.23;116118;1183;60357;-66
2021/10/15 01:18:12;;;;;;;;;;;;;;;3.77;81.16;98037.19;116026;1184;71477;-67
2021/10/15 01:20:48;;;;;;;16.20;12.10;;;;;;;3.76;81.99;98033.30;115999;1183;67597;-63
2021/10/15 01:23:18;;;;;;;21.20;13.30;;;;;;;3.75;81.68;98033.84;116071;1182;68422;-63
2021/10/15 01:25:52;;;;;;;16.40;11.10;;;;;;;3.72;82.17;98034.10;116178;1184;60363;-64
2021/10/15 01:28:24;;;;;;;13.70;8.90;;;;;;;3.71;82.13;98034.83;116227;1180;60365;-65
2021/10/15 01:30:55;;;;;;;21.60;14.40;;;;;;;3.70;82.11;98031.61;116074;1183;72204;-64
2021/10/15 01:33:26;;;;;;;20.90;13.60;;;;;;;3.65;82.73;98031.77;116057;1183;68326;-66
2021/10/15 01:35:56;;;;;;;14.70;10.40;;;;;;;3.66;81.91;98031.41;116009;1184;70519;-68
2021/10/15 01:38:26;;;;;;;13.50;9.40;;;;;;;3.66;81.72;98035.19;116032;1184;60785;-64
2021/10/15 01:40:55;;;;;;;;;;;;;;;3.68;81.28;98039.27;115959;1184;60781;-65
2021/10/15 01:43:28;;;;;;;14.80;10.90;;;;;;;3.69;81.14;98044.21;116002;1183;71991;-65
2021/10/15 01:46:00;;;;;;;15.30;10.00;;;;;;;3.69;81.98;98043.86;116149;1182;68556;-65
2021/10/15 01:48:30;;;;;;;;;;;;;;;3.70;81.78;98041.75;115874;1184;68440;-63
2021/10/15 01:51:01;;;;;;;14.40;9.80;;;;;;;3.71;81.82;98033.30;115939;1184;60284;-63
2021/10/15 01:53:31;;;;;;;20.80;13.50;;;;;;;3.72;82.21;98030.70;116053;1183;60370;-64
2021/10/15 01:56:02;;;;;;;20.30;13.50;;;;;;;3.70;82.53;98027.14;116000;1184;72283;-64
2021/10/15 01:58:32;;;;;;;22.20;15.50;;;;;;;3.68;82.77;98029.97;116078;1184;67727;-63
2021/10/15 02:01:02;;;;;;;14.80;10.50;;;;;;;3.65;82.67;98027.48;115956;1183;69147;-66
2021/10/15 02:03:33;;;;;;;11.20;7.90;;;;;;;3.63;82.33;98023.58;115952;1183;60293;-65
2021/10/15 02:06:02;;;;;;;;;;;;;;;3.65;81.66;98025.75;116035;1183;60371;-63
2021/10/15 02:08:32;;;;;;;16.70;11.80;;;;;;;3.65;81.92;98021.10;115928;1184;72014;-64
2021/10/15 02:11:02;;;;;;;;;;;;;;;3.61;82.16;98013.99;116046;1183;68415;-63
2021/10/15 02:13:32;;;;;;;19.20;12.30;;;;;;;3.59;82.23;98013.03;116053;1183;67713;-63
2021/10/15 02:16:02;;;;;;;22.00;14.70;;;;;;;3.55;82.28;98011.10;116066;1184;60367;-64
2021/10/15 02:18:32;;;;;;;18.10;12.00;;;;;;;3.51;82.46;98011.08;116014;1183;60344;-63
2021/10/15 02:21:04;;;;;;;19.70;13.70;;;;;;;3.47;82.30;98010.33;116000;1184;72778;-63
2021/10/15 02:23:33;;;;;;;20.80;15.10;;;;;;;3.45;82.35;98011.11;116051;1174;68463;-64
2021/10/15 02:26:03;;;;;;;21.30;14.20;;;;;;;3.41;82.59;98012.79;116022;1183;69285;-63
2021/10/15 02:28:33;;;;;;;21.70;15.10;;;;;;;3.40;82.59;98008.51;116088;1183;60345;-65
2021/10/15 02:31:03;;;;;;;16.20;11.40;;;;;;;3.41;82.49;98012.62;116002;1184;60322;-63
2021/10/15 02:33:33;;;;;;;16.80;11.10;;;;;;;3.43;81.84;98008.09;116037;1183;71508;-63
2021/10/15 02:36:06;;;;;;;23.30;15.50;;;;;;;3.43;82.20;98007.05;116100;1184;67702;-63
2021/10/15 02:38:36;;;;;;;25.40;16.90;;;;;;;3.40;82.74;98007.48;115966;1184;69293;-62
2021/10/15 02:41:05;;;;;;;19.00;13.30;;;;;;;3.39;82.53;98006.66;116006;1183;60358;-65
2021/10/15 02:43:35;;;;;;;26.00;19.00;;;;;;;3.40;81.69;98007.30;116078;1183;60348;-64
2021/10/15 02:46:05;;;;;;;20.30;14.80;;;;;;;3.39;82.49;98007.34;116030;1183;72011;-65
2021/10/15 02:48:34;;;;;;;17.80;11.10;;;;;;;3.40;81.82;98007.98;115958;1183;67831;-65
2021/10/15 02:51:04;;;;;;;18.80;15.80;;;;;;;3.42;81.04;98014.33;116005;1174;69354;-66
2021/10/15 02:53:34;;;;;;;17.60;12.10;;;;;;;3.42;81.52;98015.17;115949;1184;60342;-65
2021/10/15 02:56:06;;;;;;;18.80;13.70;;;;;;;3.43;81.23;98012.89;116090;1183;60797;-68
2021/10/15 02:58:36;;;;;;;19.10;13.50;;;;;;;3.45;81.60;98014.36;116013;1183;72032;-66
2021/10/15 03:01:06;;;;;;;20.30;12.80;;;;;;;3.45;82.44;98014.55;115918;1179;67878;-68
2021/10/15 03:03:35;;;;;;;19.30;14.10;;;;;;;3.43;82.94;98006.70;115925;1184;69327;-63
2021/10/15 03:06:05;;;;;;;22.80;14.80;;;;;;;3.42;82.84;98007.58;115876;1184;60415;-63
2021/10/15 03:08:35;;;;;;;19.50;13.50;;;;;;;3.41;82.90;98008.66;116076;1183;60406;-65
2021/10/15 03:11:07;;;;;;;22.70;15.40;;;;;;;3.41;82.45;98008.48;115893;1178;72139;-65
2021/10/15 03:13:37;;;;;;;20.20;13.90;;;;;;;3.43;81.84;98010.64;116027;1184;68452;-66
2021/10/15 03:16:07;;;;;;;27.20;18.60;;;;;;;3.43;81.63;98012.21;116048;1183;68371;-65
2021/10/15 03:18:37;;;;;;;25.70;18.60;;;;;;;3.37;82.84;98014.48;115721;1184;60399;-64
2021/10/15 03:21:08;;;;;;;27.10;19.60;;;;;;;3.31;83.53;98008.47;115963;1183;60360;-67
2021/10/15 03:23:37;;;;;;;28.70;19.50;;;;;;;3.25;83.83;98004.02;116059;1182;71079;-64
2021/10/15 03:26:08;;;;;;;26.80;18.80;;;;;;;3.21;84.18;97997.79;115992;1184;67620;-66
2021/10/15 03:28:38;;;;;;;26.30;18.50;;;;;;;3.18;84.22;98000.98;115996;1184;69079;-64
2021/10/15 03:31:08;;;;;;;13.30;9.20;;;;;;;3.19;83.41;98000.96;115918;1184;60383;-64
2021/10/15 03:33:38;;;;;;;13.50;9.90;;;;;;;3.21;82.66;98004.67;115961;1182;60814;-67
2021/10/15 03:36:08;;;;;;;12.00;8.60;;;;;;;3.23;82.44;98009.45;115999;1183;71380;-64
2021/10/15 03:38:38;;;;;;;15.00;9.40;;;;;;;3.26;81.63;98006.77;115978;1182;67506;-63
2021/10/15 03:41:08;;;;;;;12.80;9.60;;;;;;;3.25;81.44;98010.73;115912;1184;69270;-67
2021/10/15 03:43:38;;;;;;;15.20;11.60;;;;;;;3.23;81.44;98011.86;116028;1184;60332;-64
2021/10/15 03:46:08;;;;;;;14.70;10.80;;;;;;;3.21;81.51;98010.55;115997;1183;60307;-68
2021/10/15 03:48:38;;;;;;;13.20;9.60;;;;;;;3.20;81.38;98007.50;115973;1183;71201;-63
2021/10/15 03:51:07;;;;;;;16.40;10.80;;;;;;;3.18;81.14;98008.09;115977;1184;69251;-63
2021/10/15 03:53:37;;;;;;;14.00;10.60;;;;;;;3.17;80.79;98008.80;116020;1184;69875;-66
2021/10/15 03:56:06;;;;;;;11.40;7.30;;;;;;;3.16;80.60;98005.05;115982;1183;60435;-63
2021/10/15 03:58:38;;;;;;;17.00;13.10;;;;;;;3.14;80.61;98003.73;116177;1183;60377;-65
2021/10/15 04:01:07;;;;;;;19.60;14.00;;;;;;;3.07;80.87;98005.32;115915;1184;71779;-64
2021/10/15 04:03:37;;;;;;;13.60;9.20;;;;;;;3.03;80.85;98012.35;116035;1182;68283;-63
2021/10/15 04:06:07;;;;;;;20.10;14.70;;;;;;;2.98;81.05;98020.60;115982;1182;67470;-65
2021/10/15 04:08:37;;;;;;;15.00;10.60;;;;;;;2.92;81.28;98018.55;115951;1182;60443;-64
2021/10/15 04:11:07;;;;;;;18.80;13.40;;;;;;;2.91;81.04;98014.98;116020;1183;60332;-66
2021/10/15 04:13:36;;;;;;;10.60;7.70;;;;;;;2.85;81.33;98012.77;116012;1183;72245;-66
2021/10/15 04:16:07;;;;;;;18.90;13.70;;;;;;;2.83;81.37;98012.14;116011;1182;68250;-63
2021/10/15 04:18:36;;;;;;;16.00;10.90;;;;;;;2.79;81.63;98010.73;115976;1184;68472;-63
2021/10/15 04:21:06;;;;;;;20.50;13.60;;;;;;;2.75;81.74;98014.30;116009;1184;60334;-63
2021/10/15 04:23:35;;;;;;;20.20;13.80;;;;;;;2.71;81.91;98016.16;116032;1182;60356;-63
2021/10/15 04:26:05;;;;;;;19.80;13.70;;;;;;;2.66;82.15;98016.48;116095;1182;72526;-63
2021/10/15 04:28:35;;;;;;;18.60;12.60;;;;;;;2.64;82.19;98014.14;116009;1182;67563;-65
2021/10/15 04:31:04;;;;;;;16.90;12.00;;;;;;;2.65;81.84;98020.30;116021;1182;68378;-68
2021/10/15 04:33:34;;;;;;;15.50;10.50;;;;;;;2.67;81.57;98022.44;116199;1182;60287;-66
2021/10/15 04:36:06;;;;;;;11.10;7.20;;;;;;;2.69;81.23;98021.88;116102;1182;60271;-66
2021/10/15 04:38:36;;;;;;;16.80;11.90;;;;;;;2.72;81.18;98019.90;116190;1182;71254;-67
2021/10/15 04:41:05;;;;;;;14.40;10.60;;;;;;;2.72;81.58;98013.52;116062;1182;67691;-66
2021/10/15 04:43:35;;;;;;;10.60;7.20;;;;;;;2.72;81.45;98010.42;116059;1183;69129;-63
2021/10/15 04:46:04;;;;;;;12.90;7.60;;;;;;;2.69;81.86;98011.91;116039;1184;60349;-65
2021/10/15 04:48:33;;;;;;;13.00;8.90;;;;;;;2.68;81.71;98013.13;116069;1179;60348;-65
2021/10/15 04:51:03;;;;;;;15.70;10.30;;;;;;;2.67;81.61;98014.70;116112;1182;72202;-65
2021/10/15 04:53:33;;;;;;;17.90;11.40;;;;;;;2.60;82.26;98009.77;116120;1182;67821;-63
2021/10/15 04:56:02;;;;;;;17.00;10.60;;;;;;;2.58;82.53;98004.34;116073;1182;69159;-66
2021/10/15 04:58:32;;;;;;;11.70;7.90;;;;;;;2.58;82.47;98000.20;116098;1182;60373;-65
2021/10/15 05:01:01;;;;;;;13.50;8.80;;;;;;;2.58;82.55;98003.46;116115;1184;60360;-65
2021/10/15 05:03:32;;;;;;;17.30;11.40;;;;;;;2.59;82.52;98002.23;116096;1184;72307;-65
2021/10/15 05:06:01;;;;;;;18.30;12.70;;;;;;;2.58;82.67;98005.72;116133;1184;67664;-67
2021/10/15 05:08:33;;;;;;;21.00;14.50;;;;;;;2.54;82.99;98004.44;116113;1184;69265;-67
2021/10/15 05:11:03;;;;;;;21.00;14.20;;;;;;;2.52;83.22;98004.16;116107;1184;60796;-67
2021/10/15 05:13:32;;;;;;;21.50;15.10;;;;;;;2.57;83.81;97996.80;116066;1184;60315;-64
2021/10/15 05:16:02;;;;;;;22.90;14.70;;;;;;;2.61;83.27;97999.93;116155;1183;72321;-66
2021/10/15 05:18:32;;;;;;;15.30;10.30;;;;;;;2.68;83.25;97994.73;116111;1182;67484;-65
2021/10/15 05:21:00;;;;;;;14.90;10.40;;;;;;;2.77;82.67;98001.84;116143;1183;69110;-66
2021/10/15 05:23:30;;;;;;;32.20;24.30;;;;;;;2.85;82.25;98006.05;116123;1182;60317;-67
2021/10/15 05:25:59;;;;;;;24.40;18.00;;;;;;;2.90;82.89;98002.25;116052;1181;60443;-64
2021/10/15 05:28:29;;;;;;;30.10;22.20;;;;;;;2.94;82.61;98001.27;116138;1182;71449;-66
2021/10/15 05:30:58;;;;;;;30.30;20.60;;;;;;;2.98;82.90;98001.30;116110;1182;68544;-65
2021/10/15 05:33:27;;;;;;;31.00;22.70;;;;;;;3.03;83.04;98002.52;116100;1182;67526;-65
2021/10/15 05:35:57;;;;;;;22.50;16.90;;;;;;;3.11;82.82;98002.94;116146;1183;60772;-66
2021/10/15 05:38:26;;;;;;;23.50;17.00;;;;;;;3.18;81.32;98003.74;116001;1184;60430;-66
2021/10/15 05:40:55;;;;;;;28.80;20.00;;;;;;;3.21;81.03;98005.21;116040;1184;72922;-66
2021/10/15 05:43:25;;;;;;;21.10;16.10;;;;;;;3.22;80.82;97998.44;116036;1183;67441;-67
2021/10/15 05:45:54;;;;;;;26.00;16.40;;;;;;;3.25;80.86;97997.16;116107;1183;69361;-65
2021/10/15 05:48:24;;;;;;;32.00;23.60;;;;;;;3.29;80.80;98000.27;115952;1184;60348;-67
2021/10/15 05:50:54;;;;;;;27.50;19.30;;;;;;;3.34;81.03;98006.48;116143;1183;60325;-66
2021/10/15 05:53:24;;;;;;;28.60;18.50;;;;;;;3.41;81.77;98004.85;116128;1183;72352;-67
2021/10/15 06:01:22;;;;;;;17.10;11.60;;;;;;;3.69;81.45;97992.52;116064;1184;60357;-66
2021/10/15 06:04:25;;;;;;;31.40;22.50;;;;;;;3.78;81.09;97992.48;116091;1182;60391;-66
2021/10/15 06:15:17;;;;;;;17.00;12.90;;;;;;;4.14;80.35;98007.42;116104;1183;60325;-66
2021/10/15 06:17:46;;;;;;;26.10;18.80;;;;;;;4.22;79.95;98003.48;116217;1182;60319;-66
2021/10/15 06:20:19;;;;;;;29.20;20.10;;;;;;;4.30;79.88;97994.73;116154;1182;73159;-65
2021/10/15 06:22:49;;;;;;;22.20;14.70;;;;;;;4.35;79.74;97993.67;116132;1184;67766;-64
2021/10/15 06:25:18;;;;;;;19.70;14.20;;;;;;;4.42;79.72;97995.84;116060;1184;70012;-67
2021/10/15 06:27:47;;;;;;;16.80;12.90;;;;;;;4.51;79.48;97993.73;116002;1184;60395;-64
2021/10/15 06:30:17;;;;;;;16.40;12.20;;;;;;;4.61;79.06;97991.80;116084;1182;60370;-64
2021/10/15 06:32:46;;;;;;;19.40;14.10;;;;;;;4.71;78.82;97990.39;116165;1182;72579;-67
2021/10/15 06:35:15;;;;;;;18.70;11.90;;;;;;;4.80;78.47;97991.19;116011;1184;68541;-65
2021/10/15 06:37:44;;;;;;;19.30;13.30;;;;;;;4.89;78.16;97984.27;116083;1184;69303;-64
2021/10/15 06:40:14;;;;;;;15.30;11.70;;;;;;;4.99;78.15;97988.17;116084;1183;60373;-64
2021/10/15 06:42:44;;;;;;;13.60;10.50;;;;;;;5.10;78.10;97989.97;116079;1184;60348;-64
2021/10/15 06:45:14;;;;;;;27.60;19.00;;;;;;;5.21;77.97;97987.59;116172;1182;72229;-65
2021/10/15 06:47:43;;;;;;;;;;;;;;;5.30;77.49;97989.82;116117;1183;69784;-65
2021/10/15 06:50:13;;;;;;;18.00;13.50;;;;;;;5.38;77.57;97990.20;116106;1183;68496;-68
2021/10/15 06:52:49;;;;;;;24.30;18.10;;;;;;;5.47;77.30;97988.42;116068;1183;60404;-66
2021/10/15 06:55:22;;;;;;;38.70;28.40;;;;;;;5.55;77.12;97987.86;116179;1182;60425;-64
2021/10/15 06:57:51;;;;;;;27.90;21.80;;;;;;;5.66;76.50;97986.56;116102;1184;71681;-63
2021/10/15 07:00:21;;;;;;;28.00;21.30;;;;;;;5.73;76.61;97984.33;116040;1184;68461;-63
2021/10/15 07:02:50;;;;;;;16.60;11.90;;;;;;;5.79;76.26;97984.05;116036;1183;68488;-65
2021/10/15 07:05:19;;;;;;;16.60;11.90;;;;;;;5.87;76.04;97986.49;115883;1184;60325;-66
2021/10/15 07:07:48;;;;;;;17.60;11.70;;;;;;;5.96;76.05;97988.17;116041;1184;60345;-66
2021/10/15 07:10:18;;;;;;;14.10;9.40;;;;;;;6.06;75.90;97985.45;116007;1184;73044;-66
2021/10/15 07:12:47;;;;;;;15.70;11.40;;;;;;;6.19;75.49;97984.88;116148;1182;67822;-66
2021/10/15 07:15:17;;;;;;;15.20;10.70;;;;;;;6.29;75.03;97984.06;116310;1183;67893;-65
2021/10/15 07:17:46;;;;;;;14.80;9.70;;;;;;;6.42;75.24;97985.05;116074;1182;60353;-65
2021/10/15 07:20:15;;;;;;;13.00;9.00;;;;;;;6.57;75.15;97988.48;116053;1184;60327;-65
2021/10/15 07:22:45;;;;;;;15.50;11.50;;;;;;;6.73;74.91;97987.21;116131;1183;72198;-64
2021/10/15 07:25:14;;;;;;;19.20;14.60;;;;;;;6.88;74.00;97983.87;116081;1184;68574;-66
2021/10/15 07:27:43;;;;;;;17.00;11.80;;;;;;;7.02;73.33;97984.59;116176;1182;68540;-65
2021/10/15 07:30:12;;;;;;;17.90;11.90;;;;;;;7.15;73.57;97981.33;116132;1182;60353;-66
2021/10/15 07:32:42;;;;;;;15.70;12.40;;;;;;;7.27;73.52;97984.33;116119;1183;60327;-65
2021/10/15 07:35:12;;;;;;;20.20;15.80;;;;;;;7.33;71.55;97984.55;116111;1182;71467;-65
2021/10/15 07:37:41;;;;;;;24.10;15.20;;;;;;;7.29;71.52;97986.18;115967;1184;68430;-66
2021/10/15 07:40:11;;;;;;;17.80;13.30;;;;;;;7.23;71.01;97983.00;116100;1182;69245;-65
2021/10/15 07:42:42;;;;;;;19.00;12.70;;;;;;;7.21;71.52;97982.77;116113;1184;60422;-65
2021/10/15 07:45:12;;;;;;;17.40;12.70;;;;;;;7.26;71.25;97982.18;116036;1182;60385;-67
2021/10/15 07:48:05;;;;;;;24.20;15.20;;;;;;;7.34;71.58;97986.94;115952;1183;71525;-68
2021/10/15 07:51:01;;;;;;;12.60;9.60;;;;;;;7.47;71.49;97990.12;115847;1184;68445;-68
2021/10/15 07:53:46;;;;;;;12.40;9.10;;;;;;;7.57;71.18;97990.60;115936;1184;68283;-68
2021/10/15 07:56:16;;;;;;;16.20;11.00;;;;;;;7.67;70.64;97983.35;116037;1183;60462;-70
2021/10/15 07:58:46;;;;;;;18.90;13.00;;;;;;;7.78;70.18;97980.90;116210;1183;60389;-65
2021/10/15 08:01:15;;;;;;;13.00;8.80;;;;;;;7.83;69.76;97975.73;116053;1184;71531;-65
2021/10/15 08:03:47;;;;;;;12.30;10.50;;;;;;;7.96;69.68;97975.77;116026;1184;68351;-68
2021/10/15 08:06:17;;;;;;;17.90;13.10;;;;;;;8.07;70.10;97972.39;116123;1182;69359;-67
2021/10/15 08:08:49;;;;;;;11.20;8.60;;;;;;;8.20;69.90;97967.21;116062;1183;60330;-65
2021/10/15 08:11:19;;;;;;;14.60;10.30;;;;;;;8.31;69.76;97967.45;116260;1184;60321;-65
2021/10/15 08:13:48;;;;;;;;;;;;;;;8.36;69.16;97972.39;116106;1182;72857;-65
2021/10/15 08:16:19;;;;;;;17.70;13.60;;;;;;;8.38;68.38;97972.42;116171;1182;67712;-67
2021/10/15 08:18:48;;;;;;;16.10;11.80;;;;;;;8.41;68.51;97966.73;115999;1184;69308;-69
2021/10/15 08:21:19;;;;;;;19.80;15.00;;;;;;;8.47;68.55;97973.35;116086;1184;60384;-65
2021/10/15 08:23:48;;;;;;;18.80;14.40;;;;;;;8.46;68.30;97967.86;116286;1176;60347;-65
2021/10/15 08:26:17;;;;;;;18.10;13.10;;;;;;;8.51;68.04;97968.79;116148;1182;72218;-64
2021/10/15 08:28:47;;;;;;;15.20;10.90;;;;;;;8.56;67.77;97964.89;116178;1184;68570;-66
2021/10/15 08:31:18;;;;;;;;;;;;;;;8.63;68.34;97956.48;115986;1184;69446;-67
2021/10/15 08:33:47;;;;;;;18.50;13.70;;;;;;;8.70;67.84;97960.61;116135;1176;60362;-68
2021/10/15 08:36:16;;;;;;;22.60;15.70;;;;;;;8.71;67.20;97951.35;116066;1182;60390;-68
2021/10/15 08:38:46;;;;;;;18.40;13.90;;;;;;;8.70;66.88;97948.61;116117;1183;72770;-69
2021/10/15 08:41:23;;;;;;;19.80;15.40;;;;;;;8.71;66.24;97951.54;116353;1182;68443;-65
2021/10/15 08:43:54;;;;;;;21.20;15.10;;;;;;;8.65;66.22;97954.26;116179;1182;68490;-66
2021/10/15 08:46:24;;;;;;;14.30;9.80;;;;;;;8.67;66.42;97958.48;116109;1183;60371;-66
2021/10/15 08:48:53;;;;;;;;;;;;;;;8.76;67.20;97957.83;116224;1183;60355;-67
2021/10/15 08:51:24;;;;;;;15.50;11.30;;;;;;;8.85;66.40;97956.63;116027;1183;72251;-66
2021/10/15 08:53:58;;;;;;;12.60;9.00;;;;;;;8.93;66.43;97953.21;116130;1183;68719;-67
2021/10/15 08:56:31;;;;;;;12.10;8.60;;;;;;;9.02;64.93;97950.42;116060;1184;69079;-65
2021/10/15 08:59:07;;;;;;;13.00;9.10;;;;;;;9.15;65.29;97949.86;116105;1183;60346;-69
2021/10/15 09:01:45;;;;;;;13.80;9.00;;;;;;;9.29;65.52;97953.57;116156;1184;60395;-65
2021/10/15 09:04:19;;;;;;;17.50;13.30;;;;;;;9.35;63.27;97949.08;116326;1182;72217;-67
2021/10/15 09:06:50;;;;;;;17.90;13.30;;;;;;;9.29;62.83;97939.67;116399;1182;68784;-65
2021/10/15 09:09:33;;;;;;;15.50;10.60;;;;;;;9.18;63.74;97938.54;116141;1184;69185;-67
2021/10/15 09:12:09;;;;;;;15.20;11.10;;;;;;;9.27;64.16;97940.64;116074;1182;60358;-67
2021/10/15 09:14:39;;;;;;;14.80;10.30;;;;;;;9.41;64.58;97935.96;116211;1183;60375;-67
2021/10/15 09:17:10;;;;;;;;;;;;;;;9.49;64.07;97935.33;116096;1185;72867;-67
2021/10/15 09:19:42;;;;;;;14.30;11.10;;;;;;;9.52;63.90;97936.71;116079;1184;68419;-67
2021/10/15 09:22:16;;;;;;;19.80;13.90;;;;;;;9.58;64.50;97933.54;116197;1182;69292;-65
2021/10/15 09:25:05;;;;;;;20.00;14.80;;;;;;;9.58;63.40;97929.72;116341;1182;60383;-66
2021/10/15 09:27:36;;;;;;;16.60;11.00;;;;;;;9.62;62.88;97925.64;116337;1182;60348;-65
2021/10/15 09:30:20;;;;;;;14.10;10.30;;;;;;;9.77;63.52;97926.29;116063;1184;72100;-65
2021/10/15 09:32:52;;;;;;;17.90;12.90;;;;;;;9.97;62.48;97923.85;116183;1182;68567;-68
2021/10/15 09:35:25;;;;;;;11.20;9.00;;;;;;;10.13;62.87;97922.48;116288;1183;69373;-67
2021/10/15 09:38:02;;;;;;;23.20;17.20;;;;;;;10.31;63.04;97924.40;116259;1183;60299;-65
2021/10/15 09:40:35;;;;;;;14.90;11.60;;;;;;;10.38;61.32;97921.46;116108;1182;60407;-66
2021/10/15 09:43:13;;;;;;;17.70;13.50;;;;;;;10.51;62.26;97925.02;115996;1184;72235;-69
2021/10/15 09:45:55;;;;;;;15.80;12.90;;;;;;;10.58;61.43;97925.78;116042;1174;68563;-65
2021/10/15 09:48:36;;;;;;;18.80;13.90;;;;;;;10.57;60.87;97927.58;116085;1184;68607;-67
2021/10/15 09:51:24;;;;;;;17.30;12.80;;;;;;;10.67;61.29;97923.98;116347;1182;60350;-66
2021/10/15 09:54:18;;;;;;;16.20;12.30;;;;;;;10.82;61.17;97919.88;116292;1182;60361;-71
2021/10/15 09:56:49;;;;;;;12.20;9.50;;;;;;;10.94;60.80;97915.20;116277;1184;72248;-66
2021/10/15 09:59:19;;;;;;;16.90;12.20;;;;;;;11.07;60.92;97910.48;116162;1184;67617;-68
2021/10/15 10:01:49;;;;;;;21.30;17.90;;;;;;;11.20;60.25;97908.73;116094;1182;69068;-65
2021/10/15 10:04:22;;;;;;;25.90;19.70;;;;;;;11.31;59.04;97904.86;116015;1184;60421;-64
2021/10/15 10:06:52;;;;;;;23.00;16.90;;;;;;;11.42;59.07;97899.23;116173;1182;60296;-64
2021/10/15 10:09:25;;;;;;;20.10;15.30;;;;;;;11.52;58.72;97899.45;116064;1183;72813;-64
2021/10/15 10:11:55;;;;;;;18.90;13.90;;;;;;;11.63;59.08;97898.17;116055;1184;66687;-65
2021/10/15 10:14:26;;;;;;;19.90;14.80;;;;;;;11.73;58.69;97891.84;116031;1176;69244;-67
2021/10/15 10:16:57;;;;;;;17.40;13.40;;;;;;;11.80;57.43;97887.89;116295;1182;60635;-66
2021/10/15 10:19:34;;;;;;;24.40;19.00;;;;;;;11.83;57.07;97883.88;116231;1183;60764;-66
2021/10/15 10:22:05;;;;;;;18.20;13.20;;;;;;;11.83;56.33;97881.44;116430;1183;72256;-67
2021/10/15 10:24:35;;;;;;;23.90;17.70;;;;;;;11.87;56.52;97880.81;116101;1184;69067;-67
2021/10/15 10:27:05;;;;;;;22.80;17.10;;;;;;;11.88;56.76;97882.44;116149;1182;67628;-66
2021/10/15 10:29:45;;;;;;;21.00;15.80;;;;;;;11.88;56.16;97881.98;115922;1184;60660;-65
2021/10/15 10:32:17;;;;;;;18.10;13.30;;;;;;;11.92;56.74;97878.30;116298;1182;60303;-71
2021/10/15 10:34:46;;;;;;;21.70;16.00;;;;;;;11.97;55.60;97876.04;116217;1184;71433;-66
2021/10/15 10:37:18;;;;;;;16.10;12.50;;;;;;;11.94;55.07;97873.48;116250;1183;68418;-67
2021/10/15 10:40:09;;;;;;;16.30;12.80;;;;;;;11.95;56.59;97872.89;116219;1183;68896;-71
2021/10/15 10:43:11;;;;;;;14.90;11.10;;;;;;;11.92;55.80;97871.36;116414;1182;60539;-67
2021/10/15 10:46:15;;;;;;;18.20;13.60;;;;;;;11.91;57.31;97866.52;115902;1186;60370;-65
2021/10/15 10:48:47;;;;;;;16.80;11.10;;;;;;;11.83;57.47;97866.58;116022;1186;71451;-67
2021/10/15 10:51:28;;;;;;;16.40;11.60;;;;;;;11.83;57.04;97863.23;115815;1187;68478;-69
2021/10/15 10:54:04;;;;;;;16.10;13.10;;;;;;;11.86;57.23;97854.17;115759;1187;69084;-66
2021/10/15 10:56:50;;;;;;;18.90;14.30;;;;;;;11.84;57.37;97853.93;115990;1187;60429;-67
2021/10/15 10:59:31;;;;;;;14.60;11.20;;;;;;;11.80;57.39;97847.60;115820;1186;60478;-68
2021/10/15 11:02:04;;;;;;;16.80;12.70;;;;;;;11.78;57.34;97842.30;115879;1186;71382;-68
2021/10/15 11:04:35;;;;;;;18.80;12.00;;;;;;;11.74;57.48;97840.49;115687;1187;67782;-72
2021/10/15 11:07:21;;;;;;;15.10;11.20;;;;;;;11.70;57.21;97836.55;115757;1187;69341;-69
2021/10/15 11:09:52;;;;;;;14.20;11.00;;;;;;;11.68;57.71;97835.97;115686;1187;60404;-64
2021/10/15 11:12:31;;;;;;;16.00;12.60;;;;;;;11.60;57.46;97834.08;115859;1187;60363;-67
2021/10/15 11:15:05;;;;;;;23.50;17.60;;;;;;;11.55;57.66;97830.26;115924;1182;72203;-66
2021/10/15 11:17:47;;;;;;;21.00;14.40;;;;;;;11.51;57.76;97822.38;115859;1186;68449;-65
2021/10/15 11:20:28;;;;;;;18.40;12.40;;;;;;;11.47;58.26;97823.34;115887;1187;69259;-66
2021/10/15 11:23:11;;;;;;;17.30;13.50;;;;;;;11.42;58.05;97816.85;116143;1184;60350;-67
2021/10/15 11:25:48;;;;;;;19.20;15.30;;;;;;;11.38;58.35;97809.34;116275;1184;60332;-68
2021/10/15 11:28:20;;;;;;;18.30;13.90;;;;;;;11.35;58.44;97807.44;116179;1184;72306;-68
2021/10/15 11:30:52;;;;;;;19.10;13.90;;;;;;;11.28;58.33;97804.05;116198;1184;68387;-67
2021/10/15 11:33:25;;;;;;;20.40;15.10;;;;;;;11.24;58.39;97800.33;116261;1184;68465;-66
2021/10/15 11:35:59;;;;;;;15.10;11.90;;;;;;;11.19;58.94;97793.48;116169;1184;60377;-65
2021/10/15 11:38:32;;;;;;;14.50;11.20;;;;;;;11.26;59.16;97785.40;115970;1184;60335;-66
2021/10/15 11:41:06;;;;;;;17.90;12.70;;;;;;;11.30;59.14;97783.84;116068;1184;72888;-65
2021/10/15 11:43:38;;;;;;;17.80;14.70;;;;;;;11.33;58.58;97789.41;116079;1184;68463;-65
2021/10/15 11:46:15;;;;;;;17.40;13.30;;;;;;;11.32;58.21;97785.32;116062;1184;69192;-64
2021/10/15 11:48:48;;;;;;;18.10;11.80;;;;;;;11.28;59.01;97784.20;116138;1184;60858;-65
2021/10/15 11:51:23;;;;;;;11.60;9.60;;;;;;;11.32;58.85;97783.41;116065;1184;60335;-64
2021/10/15 11:54:10;;;;;;;12.20;8.90;;;;;;;11.34;59.12;97778.37;116108;1184;72213;-64
2021/10/15 11:56:39;;;;;;;16.20;10.50;;;;;;;11.38;58.66;97778.05;116037;1184;67679;-64